createdAt,value
2018-12-25T00:00:16.813Z,6.10
2018-12-25T00:03:19.458Z,5.57
2018-12-25T00:06:19.639Z,4.93
2018-12-25T00:09:21.118Z,5.37
2018-12-25T00:12:20.390Z,5.20
2018-12-25T00:15:19.884Z,5.30
2018-12-25T00:18:19.521Z,5.20
2018-12-25T00:21:19.427Z,6.10
2018-12-25T00:24:19.302Z,5.27
2018-12-25T00:27:19.881Z,4.93
2018-12-25T00:30:19.176Z,5.50
2018-12-25T00:33:19.123Z,5.83
2018-12-25T00:36:18.430Z,4.93
2018-12-25T00:39:18.650Z,6.40
2018-12-25T00:42:18.505Z,5.40
2018-12-25T00:45:21.940Z,5.37
2018-12-25T00:48:22.863Z,5.47
2018-12-25T00:51:35.033Z,5.70
2018-12-25T00:54:34.979Z,5.50
2018-12-25T00:57:35.103Z,5.63
2018-12-25T01:00:36.242Z,5.67
2018-12-25T01:03:37.806Z,5.53
2018-12-25T01:06:37.366Z,5.43
2018-12-25T01:09:36.524Z,6.07
2018-12-25T01:12:36.887Z,5.30
2018-12-25T01:15:36.330Z,5.30
2018-12-25T01:18:38.462Z,4.73
2018-12-25T01:21:38.449Z,6.23
2018-12-25T01:24:37.662Z,5.43
2018-12-25T01:27:38.841Z,4.80
2018-12-25T01:30:38.314Z,5.00
2018-12-25T01:33:37.887Z,5.17
2018-12-25T01:36:38.417Z,5.40
2018-12-25T01:39:43.937Z,5.00
2018-12-25T01:42:44.175Z,4.60
2018-12-25T01:45:45.252Z,4.70
2018-12-25T01:48:45.089Z,4.83
2018-12-25T01:51:48.990Z,4.90
2018-12-25T01:54:48.173Z,4.97
2018-12-25T01:57:54.436Z,5.23
2018-12-25T02:00:53.595Z,4.80
2018-12-25T02:03:53.953Z,4.57
2018-12-25T02:06:56.415Z,4.90
2018-12-25T02:09:55.854Z,4.67
2018-12-25T02:12:58.912Z,5.30
2018-12-25T02:15:59.234Z,4.90
2018-12-25T02:19:03.149Z,4.30
2018-12-25T02:22:02.464Z,4.57
2018-12-25T02:25:05.844Z,4.60
2018-12-25T02:28:05.224Z,4.80
2018-12-25T02:31:04.743Z,5.13
2018-12-25T02:34:04.114Z,4.30
2018-12-25T02:37:08.490Z,4.37
2018-12-25T02:40:07.734Z,5.00
2018-12-25T02:43:10.122Z,4.80
2018-12-25T02:46:10.808Z,4.20
2018-12-25T02:49:10.901Z,4.40
2018-12-25T02:52:12.627Z,4.77
2018-12-25T02:55:12.046Z,4.40
2018-12-25T02:58:13.426Z,4.17
2018-12-25T03:01:12.815Z,4.57
2018-12-25T03:04:14.334Z,4.63
2018-12-25T03:07:13.794Z,4.00
2018-12-25T03:10:13.295Z,4.37
2018-12-25T03:13:12.578Z,4.57
2018-12-25T03:16:12.127Z,4.97
2018-12-25T03:19:11.577Z,3.80
2018-12-25T03:22:14.386Z,4.27
2018-12-25T03:25:26.258Z,4.37
2018-12-25T03:28:25.511Z,4.33
2018-12-25T03:31:25.193Z,4.07
2018-12-25T03:34:24.504Z,4.10
2018-12-25T03:37:23.802Z,4.63
2018-12-25T03:40:24.331Z,4.17
2018-12-25T03:43:28.022Z,4.90
2018-12-25T03:46:27.285Z,4.20
2018-12-25T03:49:31.430Z,4.47
2018-12-25T03:52:30.947Z,4.40
2018-12-25T03:55:30.380Z,3.63
2018-12-25T03:58:29.605Z,4.40
2018-12-25T04:01:29.133Z,4.30
2018-12-25T04:04:29.089Z,3.63
2018-12-25T04:07:38.024Z,4.43
2018-12-25T04:10:37.225Z,4.20
2018-12-25T04:13:38.173Z,4.37
2018-12-25T04:16:37.421Z,3.57
2018-12-25T04:19:37.754Z,3.83
2018-12-25T04:22:37.236Z,4.07
2018-12-25T04:25:42.543Z,3.83
2018-12-25T04:28:41.951Z,3.63
2018-12-25T04:31:41.206Z,3.90
2018-12-25T04:34:40.863Z,4.07
2018-12-25T04:37:43.943Z,3.80
2018-12-25T04:40:43.905Z,4.13
2018-12-25T04:43:55.977Z,4.07
2018-12-25T04:46:55.290Z,3.53
2018-12-25T04:49:58.960Z,3.67
2018-12-25T04:52:58.311Z,4.27
2018-12-25T04:55:58.630Z,3.90
2018-12-25T04:58:58.976Z,3.90
2018-12-25T05:01:58.547Z,4.10
2018-12-25T05:04:57.703Z,3.93
2018-12-25T05:08:01.108Z,4.13
2018-12-25T05:11:01.699Z,4.00
2018-12-25T05:14:01.241Z,3.93
2018-12-25T05:17:00.651Z,3.97
2018-12-25T05:20:00.150Z,3.90
2018-12-25T05:22:59.569Z,3.70
2018-12-25T05:26:01.995Z,3.80
2018-12-25T05:29:01.447Z,4.13
2018-12-25T05:32:00.823Z,3.80
2018-12-25T05:35:00.317Z,4.40
2018-12-25T05:38:02.189Z,4.13
2018-12-25T05:41:03.406Z,3.83
2018-12-25T05:44:03.566Z,3.73
2018-12-25T05:47:07.239Z,3.83
2018-12-25T05:50:07.310Z,3.77
2018-12-25T05:53:07.861Z,3.97
2018-12-25T05:56:07.295Z,3.70
2018-12-25T05:59:11.609Z,4.10
2018-12-25T06:02:10.797Z,3.90
2018-12-25T06:05:11.146Z,4.30
2018-12-25T06:08:10.301Z,4.40
2018-12-25T06:11:13.469Z,3.90
2018-12-25T06:14:13.885Z,4.07
2018-12-25T06:17:13.135Z,3.63
2018-12-25T06:20:12.585Z,4.10
2018-12-25T06:23:11.814Z,4.20
2018-12-25T06:26:11.935Z,4.10
2018-12-25T06:29:11.033Z,4.10
2018-12-25T06:32:10.559Z,4.17
2018-12-25T06:35:09.848Z,3.97
2018-12-25T06:38:10.250Z,3.63
2018-12-25T06:41:09.445Z,4.30
2018-12-25T06:44:09.243Z,3.63
2018-12-25T06:47:08.488Z,4.70
2018-12-25T06:50:07.878Z,4.60
2018-12-25T06:53:07.357Z,4.80
2018-12-25T06:56:06.865Z,4.07
2018-12-25T06:59:06.718Z,4.20
2018-12-25T07:02:08.033Z,4.30
2018-12-25T07:05:08.022Z,3.77
2018-12-25T07:08:07.895Z,4.10
2018-12-25T07:11:08.238Z,4.00
2018-12-25T07:14:08.240Z,4.60
2018-12-25T07:17:14.064Z,4.00
2018-12-25T07:20:13.452Z,4.00
2018-12-25T07:23:17.961Z,4.27
2018-12-25T07:26:20.229Z,4.43
2018-12-25T07:29:19.535Z,4.03
2018-12-25T07:32:18.863Z,4.87
2018-12-25T07:35:18.216Z,4.53
2018-12-25T07:38:21.897Z,5.00
2018-12-25T07:41:21.440Z,4.03
2018-12-25T07:44:26.695Z,3.70
2018-12-25T07:47:26.190Z,4.53
2018-12-25T07:50:26.327Z,4.07
2018-12-25T07:53:26.266Z,4.13
2018-12-25T07:56:26.582Z,4.67
2018-12-25T07:59:25.982Z,3.97
2018-12-25T08:02:28.534Z,4.93
2018-12-25T08:05:27.781Z,4.07
2018-12-25T08:08:27.232Z,4.40
2018-12-25T08:11:26.602Z,4.80
2018-12-25T08:14:25.962Z,4.50
2018-12-25T08:17:25.356Z,4.87
2018-12-25T08:20:28.586Z,4.57
2018-12-25T08:23:28.472Z,4.67
2018-12-25T08:26:27.767Z,4.23
2018-12-25T08:29:28.397Z,4.30
2018-12-25T08:32:27.780Z,4.83
2018-12-25T08:35:28.523Z,4.67
2018-12-25T08:38:28.693Z,4.67
2018-12-25T08:41:28.247Z,4.50
2018-12-25T08:44:28.655Z,4.90
2018-12-25T08:47:28.967Z,4.83
2018-12-25T08:50:40.245Z,4.93
2018-12-25T08:53:40.571Z,4.10
2018-12-25T08:56:40.234Z,4.50
2018-12-25T08:59:43.891Z,4.67
2018-12-25T09:02:44.171Z,5.00
2018-12-25T09:05:49.758Z,4.87
2018-12-25T09:08:49.799Z,4.30
2018-12-25T09:11:55.526Z,4.90
2018-12-25T09:14:55.447Z,4.20
2018-12-25T09:17:54.767Z,4.57
2018-12-25T09:20:54.831Z,4.80
2018-12-25T09:23:54.066Z,4.80
2018-12-25T09:26:56.164Z,4.70
2018-12-25T09:29:57.535Z,5.13
2018-12-25T09:32:57.495Z,4.77
2018-12-25T09:35:58.484Z,3.93
2018-12-25T09:38:57.719Z,4.17
2018-12-25T09:41:57.291Z,4.13
2018-12-25T09:44:56.628Z,4.53
2018-12-25T09:47:56.119Z,4.20
2018-12-25T09:50:56.185Z,4.53
2018-12-25T09:53:56.128Z,4.20
2018-12-25T09:56:55.691Z,4.20
2018-12-25T09:59:56.052Z,4.20
2018-12-25T10:02:55.363Z,4.20
2018-12-25T10:05:54.805Z,4.57
2018-12-25T10:09:00.209Z,4.23
2018-12-25T10:11:59.681Z,4.27
2018-12-25T10:15:02.859Z,4.90
2018-12-25T10:18:02.397Z,4.47
2018-12-25T10:21:01.920Z,4.10
2018-12-25T10:24:01.319Z,4.73
2018-12-25T10:27:02.109Z,4.63
2018-12-25T10:30:02.268Z,4.27
2018-12-25T10:33:01.700Z,4.50
2018-12-25T10:36:01.107Z,4.90
2018-12-25T10:39:00.465Z,4.57
2018-12-25T10:41:59.837Z,4.20
2018-12-25T10:45:05.571Z,5.00
2018-12-25T10:48:04.851Z,4.97
2018-12-25T10:51:04.207Z,4.53
2018-12-25T10:54:03.660Z,4.30
2018-12-25T10:57:03.630Z,4.70
2018-12-25T11:00:03.219Z,4.67
2018-12-25T11:03:02.900Z,4.47
2018-12-25T11:06:02.088Z,4.17
2018-12-25T11:09:02.025Z,4.47
2018-12-25T11:12:02.424Z,4.37
2018-12-25T11:15:01.762Z,4.70
2018-12-25T11:18:01.395Z,4.33
2018-12-25T11:21:04.068Z,4.00
2018-12-25T11:24:04.766Z,5.00
2018-12-25T11:27:04.721Z,4.83
2018-12-25T11:30:05.992Z,5.00
2018-12-25T11:33:05.361Z,4.57
2018-12-25T11:36:04.827Z,5.27
2018-12-25T11:39:08.011Z,5.73
2018-12-25T11:42:07.343Z,5.57
2018-12-25T11:45:08.986Z,6.30
2018-12-25T11:48:09.147Z,7.70
2018-12-25T11:51:09.633Z,7.53
2018-12-25T11:54:10.380Z,6.97
2018-12-25T11:57:10.364Z,7.07
2018-12-25T12:00:10.664Z,7.33
2018-12-25T12:03:10.254Z,8.23
2018-12-25T12:06:09.515Z,7.03
2018-12-25T12:09:09.567Z,7.43
2018-12-25T12:12:09.792Z,7.73
2018-12-25T12:15:09.726Z,7.87
2018-12-25T12:18:09.059Z,8.03
2018-12-25T12:21:09.000Z,7.57
2018-12-25T12:24:08.190Z,6.90
2018-12-25T12:27:08.711Z,7.90
2018-12-25T12:30:08.437Z,8.23
2018-12-25T12:33:09.602Z,7.87
2018-12-25T12:36:10.423Z,8.80
2018-12-25T12:39:09.766Z,7.37
2018-12-25T12:42:10.461Z,7.50
2018-12-25T12:45:09.826Z,7.70
2018-12-25T12:48:09.357Z,7.87
2018-12-25T12:51:08.770Z,8.53
2018-12-25T12:54:10.045Z,7.90
2018-12-25T12:57:09.765Z,8.20
2018-12-25T13:00:10.144Z,7.47
2018-12-25T13:03:09.574Z,8.30
2018-12-25T13:06:11.576Z,8.33
2018-12-25T13:09:10.836Z,7.90
2018-12-25T13:12:10.659Z,8.03
2018-12-25T13:15:14.205Z,9.07
2018-12-25T13:18:14.736Z,7.63
2018-12-25T13:21:14.671Z,8.47
2018-12-25T13:24:13.940Z,8.27
2018-12-25T13:27:14.207Z,7.97
2018-12-25T13:30:18.120Z,7.83
2018-12-25T13:33:17.452Z,7.57
2018-12-25T13:36:19.283Z,7.97
2018-12-25T13:39:18.652Z,7.17
2018-12-25T13:42:20.051Z,7.67
2018-12-25T13:45:19.548Z,7.90
2018-12-25T13:48:23.901Z,8.20
2018-12-25T13:51:23.986Z,7.97
2018-12-25T13:54:24.874Z,7.17
2018-12-25T13:57:24.799Z,7.83
2018-12-25T14:03:54.450Z,7.07
2018-12-25T14:06:54.772Z,7.80
2018-12-25T14:09:54.217Z,7.10
2018-12-25T14:12:57.899Z,7.40
2018-12-25T14:15:57.997Z,7.40
2018-12-25T14:19:00.402Z,7.30
2018-12-25T14:21:59.834Z,7.37
2018-12-25T14:25:02.218Z,6.83
2018-12-25T14:28:01.695Z,7.33
2018-12-25T14:31:01.030Z,7.70
2018-12-25T14:34:01.643Z,6.93
2018-12-25T14:37:04.053Z,6.80
2018-12-25T14:40:04.344Z,6.43
2018-12-25T14:43:03.750Z,6.90
2018-12-25T14:46:03.098Z,7.23
2018-12-25T14:49:07.730Z,7.57
2018-12-25T14:52:07.142Z,8.07
2018-12-25T14:55:06.505Z,7.17
2018-12-25T14:58:07.036Z,7.70
2018-12-25T15:01:06.355Z,8.10
2018-12-25T15:04:05.936Z,7.50
2018-12-25T15:07:06.459Z,7.87
2018-12-25T15:10:06.445Z,7.67
2018-12-25T15:13:05.817Z,7.67
2018-12-25T15:16:05.530Z,8.80
2018-12-25T15:19:04.787Z,7.87
2018-12-25T15:22:04.288Z,8.27
2018-12-25T15:25:08.149Z,8.10
2018-12-25T15:28:09.446Z,8.13
2018-12-25T15:31:08.772Z,8.70
2018-12-25T15:34:08.214Z,7.53
2018-12-25T15:37:08.875Z,7.93
2018-12-25T15:40:09.123Z,7.80
2018-12-25T15:43:15.026Z,8.03
2018-12-25T15:46:14.880Z,7.83
2018-12-25T15:49:15.262Z,8.40
2018-12-25T15:52:14.479Z,7.20
2018-12-25T15:55:15.823Z,7.57
2018-12-25T15:58:19.317Z,7.70
2018-12-25T16:01:18.643Z,7.97
2018-12-25T16:04:20.038Z,7.43
2018-12-25T16:07:19.868Z,7.93
2018-12-25T16:10:19.267Z,8.10
2018-12-25T16:13:31.315Z,7.70
2018-12-25T16:16:31.734Z,7.97
2018-12-25T16:19:31.167Z,8.00
2018-12-25T16:22:38.743Z,8.17
2018-12-25T16:25:38.638Z,7.37
2018-12-25T16:28:38.609Z,8.63
2018-12-25T16:31:38.037Z,8.03
2018-12-25T16:34:38.578Z,7.70
2018-12-25T16:37:38.821Z,7.90
2018-12-25T16:40:38.177Z,7.93
2018-12-25T16:43:37.594Z,7.97
2018-12-25T16:46:39.245Z,7.77
2018-12-25T16:49:40.922Z,8.00
2018-12-25T16:52:42.852Z,7.73
2018-12-25T16:55:42.542Z,8.70
2018-12-25T16:58:42.767Z,7.80
2018-12-25T17:01:42.320Z,7.43
2018-12-25T17:04:41.913Z,7.97
2018-12-25T17:07:41.467Z,7.50
2018-12-25T17:10:40.738Z,7.83
2018-12-25T17:13:40.155Z,8.20
2018-12-25T17:16:43.263Z,7.07
2018-12-25T17:19:42.927Z,7.83
2018-12-25T17:22:42.502Z,7.47
2018-12-25T17:25:42.985Z,7.40
2018-12-25T17:28:42.595Z,7.70
2018-12-25T17:31:42.339Z,6.70
2018-12-25T17:34:46.843Z,7.23
2018-12-25T17:37:47.472Z,7.10
2018-12-25T17:40:48.378Z,7.97
2018-12-25T17:43:47.695Z,7.87
2018-12-25T17:46:47.526Z,7.57
2018-12-25T17:49:47.135Z,7.53
2018-12-25T17:52:48.613Z,6.97
2018-12-25T17:55:48.746Z,7.17
2018-12-25T17:58:49.576Z,7.90
2018-12-25T18:01:50.090Z,7.17
2018-12-25T18:04:49.359Z,7.73
2018-12-25T18:07:53.286Z,6.97
2018-12-25T18:10:54.714Z,7.97
2018-12-25T18:13:53.948Z,7.27
2018-12-25T18:16:54.065Z,7.13
2018-12-25T18:19:53.452Z,7.13
2018-12-25T18:22:54.421Z,8.00
2018-12-25T18:25:54.100Z,7.17
2018-12-25T18:28:55.694Z,7.57
2018-12-25T18:31:54.906Z,7.33
2018-12-25T18:34:54.653Z,7.23
2018-12-25T18:37:53.872Z,7.63
2018-12-25T18:40:55.907Z,7.70
2018-12-25T18:43:55.950Z,7.30
2018-12-25T18:46:58.299Z,7.40
2018-12-25T18:49:57.542Z,7.63
2018-12-25T18:52:57.377Z,7.97
2018-12-25T18:55:57.230Z,7.83
2018-12-25T18:58:57.537Z,7.97
2018-12-25T19:01:56.933Z,7.23
2018-12-25T19:04:57.723Z,7.37
2018-12-25T19:07:57.645Z,7.80
2018-12-25T19:10:57.945Z,7.93
2018-12-25T19:13:58.352Z,7.93
2018-12-25T19:16:57.802Z,7.57
2018-12-25T19:19:57.902Z,7.63
2018-12-25T19:22:57.841Z,7.53
2018-12-25T19:25:59.115Z,7.67
2018-12-25T19:28:59.502Z,7.40
2018-12-25T19:31:58.874Z,7.10
2018-12-25T19:34:58.449Z,7.27
2018-12-25T19:37:57.881Z,7.90
2018-12-25T19:41:00.257Z,7.17
2018-12-25T19:44:00.722Z,7.80
2018-12-25T19:47:00.137Z,7.20
2018-12-25T19:50:00.262Z,7.13
2018-12-25T19:53:00.304Z,7.57
2018-12-25T19:56:01.626Z,8.23
2018-12-25T19:59:01.880Z,7.53
2018-12-25T20:02:01.676Z,7.00
2018-12-25T20:08:17.922Z,7.27
2018-12-25T20:13:34.012Z,7.57
2018-12-25T20:18:46.182Z,7.40
2018-12-25T20:24:08.332Z,7.50
2018-12-25T20:27:21.002Z,8.27
2018-12-25T20:31:05.600Z,7.73
2018-12-25T20:34:37.440Z,8.60
2018-12-25T20:40:11.636Z,7.40
2018-12-25T20:47:33.950Z,7.60
2018-12-25T20:52:08.406Z,8.27
2018-12-25T20:57:23.242Z,7.53
2018-12-25T21:00:34.383Z,7.60
2018-12-25T21:06:06.233Z,8.37
2018-12-25T21:09:16.506Z,8.23
2018-12-25T21:14:43.364Z,8.60
2018-12-25T21:18:12.829Z,8.20
2018-12-25T21:21:38.734Z,7.97
2018-12-25T21:24:49.684Z,8.40
2018-12-25T21:27:47.991Z,8.10
2018-12-25T21:30:48.711Z,8.73
2018-12-25T21:33:48.015Z,8.00
2018-12-25T21:36:49.963Z,9.07
2018-12-25T21:39:49.913Z,8.33
2018-12-25T21:42:50.674Z,8.33
2018-12-25T21:45:50.271Z,8.83
2018-12-25T21:48:50.076Z,8.07
2018-12-25T21:51:49.507Z,8.50
2018-12-25T21:54:49.985Z,7.67
2018-12-25T21:57:51.681Z,8.00
2018-12-25T22:00:52.293Z,7.60
2018-12-25T22:03:51.702Z,7.40
2018-12-25T22:06:52.054Z,8.43
2018-12-25T22:09:52.122Z,8.23
2018-12-25T22:12:51.516Z,8.60
2018-12-25T22:15:51.038Z,7.87
2018-12-25T22:18:51.406Z,8.20
2018-12-25T22:21:50.684Z,7.90
2018-12-25T22:24:53.663Z,8.83
2018-12-25T22:27:53.337Z,7.33
2018-12-25T22:30:56.210Z,8.23
2018-12-25T22:33:55.589Z,7.80
2018-12-25T22:36:55.079Z,7.73
2018-12-25T22:39:54.481Z,7.53
2018-12-25T22:42:54.844Z,8.00
2018-12-25T22:45:54.134Z,7.67
2018-12-25T22:48:54.897Z,7.67
2018-12-25T22:51:54.968Z,7.03
2018-12-25T22:54:54.401Z,7.47
2018-12-25T22:57:54.569Z,7.37
2018-12-25T23:00:54.632Z,7.73
2018-12-25T23:03:56.010Z,7.33
2018-12-25T23:06:57.623Z,7.33
2018-12-25T23:09:56.862Z,7.07
2018-12-25T23:13:00.323Z,7.33
2018-12-25T23:16:00.721Z,7.10
2018-12-25T23:19:00.214Z,6.93
2018-12-25T23:22:03.394Z,7.33
2018-12-25T23:25:03.033Z,7.50
2018-12-25T23:28:08.675Z,7.83
2018-12-25T23:31:08.792Z,6.93
2018-12-25T23:34:08.763Z,7.53
2018-12-25T23:37:09.198Z,7.03
2018-12-25T23:40:14.467Z,6.60
2018-12-25T23:43:14.394Z,7.23
2018-12-25T23:46:13.823Z,6.73
2018-12-25T23:49:13.627Z,8.23
2018-12-25T23:52:14.238Z,7.17
2018-12-25T23:55:14.197Z,7.03
2018-12-25T23:58:14.757Z,6.83
